sensor_id;sensor_type;location;lat;lon;timestamp;pressure;altitude;pressure_sealevel;temperature;humidity
39051;BME280;24805;55.852;37.644;2023-08-08T00:02:39;98650.94;;;23.98;51.00
39051;BME280;24805;55.852;37.644;2023-08-08T00:07:41;98647.53;;;23.88;51.10
39051;BME280;24805;55.852;37.644;2023-08-08T00:12:43;98629.16;;;23.80;50.92
39051;BME280;24805;55.852;37.644;2023-08-08T00:17:46;98640.88;;;23.75;51.52
39051;BME280;24805;55.852;37.644;2023-08-08T00:22:49;98622.53;;;23.67;51.89
39051;BME280;24805;55.852;37.644;2023-08-08T00:27:51;98631.22;;;23.64;51.90
39051;BME280;24805;55.852;37.644;2023-08-08T00:32:53;98624.47;;;23.61;51.94
39051;BME280;24805;55.852;37.644;2023-08-08T00:37:55;98615.53;;;23.61;51.90
39051;BME280;24805;55.852;37.644;2023-08-08T00:42:58;98610.66;;;23.63;51.81
39051;BME280;24805;55.852;37.644;2023-08-08T00:48:00;98595.84;;;23.50;51.68
39051;BME280;24805;55.852;37.644;2023-08-08T00:53:04;98607.19;;;23.57;52.01
39051;BME280;24805;55.852;37.644;2023-08-08T00:58:07;98587.75;;;23.45;51.73
39051;BME280;24805;55.852;37.644;2023-08-08T01:03:09;98586.91;;;23.50;51.97
39051;BME280;24805;55.852;37.644;2023-08-08T01:08:16;98602.28;;;23.59;51.62
39051;BME280;24805;55.852;37.644;2023-08-08T01:13:23;98588.03;;;23.44;51.55
39051;BME280;24805;55.852;37.644;2023-08-08T01:18:26;98596.66;;;23.51;51.33
39051;BME280;24805;55.852;37.644;2023-08-08T01:23:43;98583.00;;;23.66;50.62
39051;BME280;24805;55.852;37.644;2023-08-08T01:28:47;98552.00;;;23.48;51.10
39051;BME280;24805;55.852;37.644;2023-08-08T01:33:50;98571.75;;;23.49;50.91
39051;BME280;24805;55.852;37.644;2023-08-08T01:38:53;98575.28;;;23.49;51.21
39051;BME280;24805;55.852;37.644;2023-08-08T01:43:59;98587.75;;;23.45;51.04
39051;BME280;24805;55.852;37.644;2023-08-08T01:49:01;98563.69;;;23.44;51.70
39051;BME280;24805;55.852;37.644;2023-08-08T01:54:03;98558.63;;;23.37;51.78
39051;BME280;24805;55.852;37.644;2023-08-08T01:59:06;98557.00;;;23.36;51.34
39051;BME280;24805;55.852;37.644;2023-08-08T02:04:08;98566.75;;;23.37;51.05
39051;BME280;24805;55.852;37.644;2023-08-08T02:09:11;98568.81;;;23.45;50.89
39051;BME280;24805;55.852;37.644;2023-08-08T02:14:16;98575.00;;;23.51;50.75
39051;BME280;24805;55.852;37.644;2023-08-08T02:19:18;98568.78;;;23.50;50.30
39051;BME280;24805;55.852;37.644;2023-08-08T02:24:20;98567.16;;;23.54;50.55
39051;BME280;24805;55.852;37.644;2023-08-08T02:29:23;98582.53;;;23.59;50.23
39051;BME280;24805;55.852;37.644;2023-08-08T02:34:25;98582.22;;;23.60;49.98
39051;BME280;24805;55.852;37.644;2023-08-08T02:39:27;98580.00;;;23.67;49.79
39051;BME280;24805;55.852;37.644;2023-08-08T02:44:30;98575.97;;;23.65;52.90
39051;BME280;24805;55.852;37.644;2023-08-08T02:49:33;98564.13;;;23.22;54.16
39051;BME280;24805;55.852;37.644;2023-08-08T02:54:35;98570.06;;;22.90;53.82
39051;BME280;24805;55.852;37.644;2023-08-08T02:59:38;98565.75;;;22.89;55.33
39051;BME280;24805;55.852;37.644;2023-08-08T03:04:41;98573.00;;;22.93;54.36
39051;BME280;24805;55.852;37.644;2023-08-08T03:09:44;98588.63;;;23.01;54.43
39051;BME280;24805;55.852;37.644;2023-08-08T03:14:47;98580.75;;;23.10;54.46
39051;BME280;24805;55.852;37.644;2023-08-08T03:19:50;98584.97;;;23.21;53.94
39051;BME280;24805;55.852;37.644;2023-08-08T03:24:52;98579.53;;;23.26;53.97
39051;BME280;24805;55.852;37.644;2023-08-08T03:29:55;98589.53;;;23.26;53.44
39051;BME280;24805;55.852;37.644;2023-08-08T03:34:58;98573.41;;;23.16;52.62
39051;BME280;24805;55.852;37.644;2023-08-08T03:40:00;98596.50;;;23.37;52.68
39051;BME280;24805;55.852;37.644;2023-08-08T03:45:06;98587.72;;;23.50;52.66
39051;BME280;24805;55.852;37.644;2023-08-08T03:50:08;98588.97;;;23.63;51.67
39051;BME280;24805;55.852;37.644;2023-08-08T03:55:12;98602.03;;;23.85;51.08
39051;BME280;24805;55.852;37.644;2023-08-08T04:00:15;98601.41;;;23.98;50.54
39051;BME280;24805;55.852;37.644;2023-08-08T04:05:17;98605.63;;;24.04;50.38
39051;BME280;24805;55.852;37.644;2023-08-08T04:10:20;98609.91;;;24.10;49.81
39051;BME280;24805;55.852;37.644;2023-08-08T04:15:22;98609.78;;;24.20;49.93
39051;BME280;24805;55.852;37.644;2023-08-08T04:20:24;98609.50;;;24.27;49.20
39051;BME280;24805;55.852;37.644;2023-08-08T04:25:28;98614.91;;;24.27;49.45
39051;BME280;24805;55.852;37.644;2023-08-08T04:30:31;98610.88;;;24.19;49.17
39051;BME280;24805;55.852;37.644;2023-08-08T04:35:33;98608.81;;;24.11;50.09
39051;BME280;24805;55.852;37.644;2023-08-08T04:40:35;98597.00;;;24.02;50.45
39051;BME280;24805;55.852;37.644;2023-08-08T04:45:40;98599.47;;;23.98;50.42
39051;BME280;24805;55.852;37.644;2023-08-08T04:50:42;98616.53;;;23.99;50.86
39051;BME280;24805;55.852;37.644;2023-08-08T04:55:44;98617.94;;;23.96;50.71
39051;BME280;24805;55.852;37.644;2023-08-08T05:00:47;98611.19;;;23.94;51.84
39051;BME280;24805;55.852;37.644;2023-08-08T05:05:49;98606.25;;;23.72;51.96
39051;BME280;24805;55.852;37.644;2023-08-08T05:10:52;98609.84;;;23.62;52.60
39051;BME280;24805;55.852;37.644;2023-08-08T05:15:54;98626.31;;;23.66;52.50
39051;BME280;24805;55.852;37.644;2023-08-08T05:20:56;98643.75;;;23.84;53.16
39051;BME280;24805;55.852;37.644;2023-08-08T05:25:59;98638.34;;;24.13;52.53
39051;BME280;24805;55.852;37.644;2023-08-08T05:31:01;98640.41;;;24.21;51.16
39051;BME280;24805;55.852;37.644;2023-08-08T05:36:04;98628.13;;;24.33;51.04
39051;BME280;24805;55.852;37.644;2023-08-08T05:41:06;98625.81;;;24.46;51.25
39051;BME280;24805;55.852;37.644;2023-08-08T05:46:08;98630.09;;;24.70;51.04
39051;BME280;24805;55.852;37.644;2023-08-08T05:51:11;98634.78;;;25.08;49.85
39051;BME280;24805;55.852;37.644;2023-08-08T05:56:13;98627.63;;;25.49;47.83
39051;BME280;24805;55.852;37.644;2023-08-08T06:01:16;98618.09;;;25.84;47.72
39051;BME280;24805;55.852;37.644;2023-08-08T06:06:18;98616.09;;;26.03;47.25
39051;BME280;24805;55.852;37.644;2023-08-08T06:11:21;98622.50;;;26.54;46.51
39051;BME280;24805;55.852;37.644;2023-08-08T06:16:24;98637.38;;;26.84;44.71
39051;BME280;24805;55.852;37.644;2023-08-08T06:21:26;98618.44;;;26.65;44.85
39051;BME280;24805;55.852;37.644;2023-08-08T06:26:29;98615.25;;;26.49;45.44
39051;BME280;24805;55.852;37.644;2023-08-08T06:31:31;98636.81;;;26.46;45.41
39051;BME280;24805;55.852;37.644;2023-08-08T06:36:33;98631.69;;;26.30;45.35
39051;BME280;24805;55.852;37.644;2023-08-08T06:41:36;98613.09;;;26.19;45.81
39051;BME280;24805;55.852;37.644;2023-08-08T06:46:38;98626.63;;;26.65;46.01
39051;BME280;24805;55.852;37.644;2023-08-08T06:51:40;98629.47;;;27.09;44.91
39051;BME280;24805;55.852;37.644;2023-08-08T06:56:43;98633.81;;;28.00;42.93
39051;BME280;24805;55.852;37.644;2023-08-08T07:01:45;98630.50;;;28.91;40.98
39051;BME280;24805;55.852;37.644;2023-08-08T07:06:47;98640.13;;;29.05;40.27
39051;BME280;24805;55.852;37.644;2023-08-08T07:11:50;98644.97;;;29.69;38.84
39051;BME280;24805;55.852;37.644;2023-08-08T07:16:52;98642.81;;;30.00;38.19
39051;BME280;24805;55.852;37.644;2023-08-08T07:21:55;98642.41;;;29.72;37.97
39051;BME280;24805;55.852;37.644;2023-08-08T07:26:58;98657.53;;;29.44;39.16
39051;BME280;24805;55.852;37.644;2023-08-08T07:32:03;98644.09;;;28.73;40.16
39051;BME280;24805;55.852;37.644;2023-08-08T07:37:06;98642.97;;;28.26;41.74
39051;BME280;24805;55.852;37.644;2023-08-08T07:42:08;98667.63;;;28.21;41.65
39051;BME280;24805;55.852;37.644;2023-08-08T07:47:11;98653.44;;;28.10;42.13
39051;BME280;24805;55.852;37.644;2023-08-08T07:52:14;98654.59;;;27.87;42.42
39051;BME280;24805;55.852;37.644;2023-08-08T07:57:16;98658.06;;;27.57;43.16
39051;BME280;24805;55.852;37.644;2023-08-08T08:02:19;98668.63;;;27.36;43.60
39051;BME280;24805;55.852;37.644;2023-08-08T08:07:30;98670.72;;;27.03;44.30
39051;BME280;24805;55.852;37.644;2023-08-08T08:12:33;98666.47;;;27.10;44.47
39051;BME280;24805;55.852;37.644;2023-08-08T08:17:35;98648.81;;;27.44;43.59
39051;BME280;24805;55.852;37.644;2023-08-08T08:22:38;98668.41;;;27.68;43.03
39051;BME280;24805;55.852;37.644;2023-08-08T08:27:40;98669.22;;;27.69;43.25
39051;BME280;24805;55.852;37.644;2023-08-08T08:32:44;98681.16;;;27.82;43.19
39051;BME280;24805;55.852;37.644;2023-08-08T08:37:46;98684.88;;;27.63;43.36
39051;BME280;24805;55.852;37.644;2023-08-08T08:42:49;98694.94;;;27.40;43.86
39051;BME280;24805;55.852;37.644;2023-08-08T08:47:55;98703.00;;;27.45;44.40
39051;BME280;24805;55.852;37.644;2023-08-08T08:52:58;98684.22;;;27.44;45.37
39051;BME280;24805;55.852;37.644;2023-08-08T08:58:02;98698.94;;;27.79;45.30
39051;BME280;24805;55.852;37.644;2023-08-08T09:03:05;98697.13;;;28.50;44.38
39051;BME280;24805;55.852;37.644;2023-08-08T09:08:08;98680.47;;;30.03;43.00
39051;BME280;24805;55.852;37.644;2023-08-08T09:13:11;98690.00;;;30.82;39.85
39051;BME280;24805;55.852;37.644;2023-08-08T09:18:13;98701.97;;;31.28;38.52
39051;BME280;24805;55.852;37.644;2023-08-08T09:23:16;98696.31;;;31.33;38.94
39051;BME280;24805;55.852;37.644;2023-08-08T09:28:18;98698.63;;;31.84;37.10
39051;BME280;24805;55.852;37.644;2023-08-08T09:33:21;98697.94;;;32.21;36.35
39051;BME280;24805;55.852;37.644;2023-08-08T09:38:23;98708.06;;;31.96;36.94
39051;BME280;24805;55.852;37.644;2023-08-08T09:43:25;98718.75;;;31.47;37.05
39051;BME280;24805;55.852;37.644;2023-08-08T09:48:32;98721.97;;;31.49;38.27
39051;BME280;24805;55.852;37.644;2023-08-08T09:53:35;98709.59;;;31.22;38.27
39051;BME280;24805;55.852;37.644;2023-08-08T09:58:38;98719.75;;;31.42;37.50
39051;BME280;24805;55.852;37.644;2023-08-08T10:03:41;98721.69;;;31.83;37.68
39051;BME280;24805;55.852;37.644;2023-08-08T10:08:46;98716.31;;;32.08;36.65
39051;BME280;24805;55.852;37.644;2023-08-08T10:13:49;98718.44;;;32.02;36.80
39051;BME280;24805;55.852;37.644;2023-08-08T10:18:59;98720.56;;;31.84;36.96
39051;BME280;24805;55.852;37.644;2023-08-08T10:24:07;98721.13;;;31.36;36.88
39051;BME280;24805;55.852;37.644;2023-08-08T10:29:17;98723.38;;;31.34;37.38
39051;BME280;24805;55.852;37.644;2023-08-08T10:34:21;98721.28;;;31.02;37.65
39051;BME280;24805;55.852;37.644;2023-08-08T10:39:24;98720.56;;;30.93;38.08
39051;BME280;24805;55.852;37.644;2023-08-08T10:44:27;98725.56;;;30.91;37.86
39051;BME280;24805;55.852;37.644;2023-08-08T10:49:29;98738.81;;;31.09;37.62
39051;BME280;24805;55.852;37.644;2023-08-08T10:54:32;98736.34;;;31.25;37.72
39051;BME280;24805;55.852;37.644;2023-08-08T10:59:38;98747.38;;;31.37;37.79
39051;BME280;24805;55.852;37.644;2023-08-08T11:04:41;98753.03;;;31.11;38.27
39051;BME280;24805;55.852;37.644;2023-08-08T11:09:44;98759.69;;;30.93;38.37
39051;BME280;24805;55.852;37.644;2023-08-08T11:14:46;98753.22;;;30.60;38.39
39051;BME280;24805;55.852;37.644;2023-08-08T11:19:50;98749.59;;;30.30;39.32
39051;BME280;24805;55.852;37.644;2023-08-08T11:24:52;98735.44;;;30.28;39.48
39051;BME280;24805;55.852;37.644;2023-08-08T11:29:59;98742.94;;;30.95;38.43
39051;BME280;24805;55.852;37.644;2023-08-08T11:35:02;98746.09;;;31.14;37.90
39051;BME280;24805;55.852;37.644;2023-08-08T11:40:06;98755.88;;;31.65;37.39
39051;BME280;24805;55.852;37.644;2023-08-08T11:45:09;98764.41;;;32.26;36.64
39051;BME280;24805;55.852;37.644;2023-08-08T11:50:12;98770.03;;;32.30;36.49
39051;BME280;24805;55.852;37.644;2023-08-08T11:55:14;98758.78;;;32.23;36.81
39051;BME280;24805;55.852;37.644;2023-08-08T12:00:17;98761.00;;;32.08;36.77
39051;BME280;24805;55.852;37.644;2023-08-08T12:05:21;98764.28;;;32.23;37.18
39051;BME280;24805;55.852;37.644;2023-08-08T12:10:25;98750.69;;;33.84;34.50
39051;BME280;24805;55.852;37.644;2023-08-08T12:15:34;98755.59;;;35.45;32.59
39051;BME280;24805;55.852;37.644;2023-08-08T12:20:37;98748.44;;;34.62;32.95
39051;BME280;24805;55.852;37.644;2023-08-08T12:25:42;98757.25;;;33.68;33.89
39051;BME280;24805;55.852;37.644;2023-08-08T12:30:44;98747.19;;;32.62;35.36
39051;BME280;24805;55.852;37.644;2023-08-08T12:35:48;98750.22;;;32.03;36.69
39051;BME280;24805;55.852;37.644;2023-08-08T12:40:50;98744.44;;;31.84;37.15
39051;BME280;24805;55.852;37.644;2023-08-08T12:45:53;98756.41;;;31.59;37.32
39051;BME280;24805;55.852;37.644;2023-08-08T12:50:55;98752.66;;;31.42;37.59
39051;BME280;24805;55.852;37.644;2023-08-08T12:55:57;98763.03;;;31.37;38.19
39051;BME280;24805;55.852;37.644;2023-08-08T13:01:00;98760.47;;;31.32;37.98
39051;BME280;24805;55.852;37.644;2023-08-08T13:06:02;98749.78;;;31.39;38.51
39051;BME280;24805;55.852;37.644;2023-08-08T13:11:05;98751.47;;;31.52;38.35
39051;BME280;24805;55.852;37.644;2023-08-08T13:16:07;98736.06;;;31.60;37.43
39051;BME280;24805;55.852;37.644;2023-08-08T13:21:10;98738.34;;;31.58;37.78
39051;BME280;24805;55.852;37.644;2023-08-08T13:26:12;98739.94;;;31.38;37.91
39051;BME280;24805;55.852;37.644;2023-08-08T13:31:17;98742.63;;;31.26;38.49
39051;BME280;24805;55.852;37.644;2023-08-08T13:36:19;98743.81;;;31.07;38.81
39051;BME280;24805;55.852;37.644;2023-08-08T13:41:22;98729.81;;;31.09;38.69
39051;BME280;24805;55.852;37.644;2023-08-08T13:46:24;98733.84;;;31.03;39.30
39051;BME280;24805;55.852;37.644;2023-08-08T13:51:26;98731.69;;;30.88;40.05
39051;BME280;24805;55.852;37.644;2023-08-08T13:56:29;98737.41;;;30.74;40.67
39051;BME280;24805;55.852;37.644;2023-08-08T14:01:31;98738.72;;;30.59;40.80
39051;BME280;24805;55.852;37.644;2023-08-08T14:06:34;98737.63;;;30.52;41.27
39051;BME280;24805;55.852;37.644;2023-08-08T14:11:37;98738.75;;;30.50;40.93
39051;BME280;24805;55.852;37.644;2023-08-08T14:16:39;98736.69;;;30.56;40.46
39051;BME280;24805;55.852;37.644;2023-08-08T14:21:41;98739.56;;;30.42;41.80
39051;BME280;24805;55.852;37.644;2023-08-08T14:26:44;98736.88;;;30.25;42.12
39051;BME280;24805;55.852;37.644;2023-08-08T14:31:47;98738.38;;;30.14;42.61
39051;BME280;24805;55.852;37.644;2023-08-08T14:37:01;98745.25;;;30.20;42.79
39051;BME280;24805;55.852;37.644;2023-08-08T14:42:04;98731.59;;;30.20;42.87
39051;BME280;24805;55.852;37.644;2023-08-08T14:47:06;98740.91;;;30.36;42.60
39051;BME280;24805;55.852;37.644;2023-08-08T14:52:09;98748.31;;;30.36;42.69
39051;BME280;24805;55.852;37.644;2023-08-08T14:57:11;98750.06;;;30.32;42.90
39051;BME280;24805;55.852;37.644;2023-08-08T15:02:15;98745.38;;;30.41;42.93
39051;BME280;24805;55.852;37.644;2023-08-08T15:07:17;98741.72;;;30.28;42.95
39051;BME280;24805;55.852;37.644;2023-08-08T15:12:19;98748.31;;;30.19;43.22
39051;BME280;24805;55.852;37.644;2023-08-08T15:17:22;98744.31;;;30.16;43.36
39051;BME280;24805;55.852;37.644;2023-08-08T15:22:26;98746.09;;;30.03;42.97
39051;BME280;24805;55.852;37.644;2023-08-08T15:27:28;98744.63;;;29.80;43.60
39051;BME280;24805;55.852;37.644;2023-08-08T15:32:31;98756.06;;;29.65;44.39
39051;BME280;24805;55.852;37.644;2023-08-08T15:37:33;98758.78;;;29.47;44.31
39051;BME280;24805;55.852;37.644;2023-08-08T15:42:35;98760.97;;;29.28;44.87
39051;BME280;24805;55.852;37.644;2023-08-08T15:47:38;98761.44;;;29.13;44.88
39051;BME280;24805;55.852;37.644;2023-08-08T15:52:41;98764.13;;;28.96;45.27
39051;BME280;24805;55.852;37.644;2023-08-08T15:57:43;98773.34;;;28.77;46.06
39051;BME280;24805;55.852;37.644;2023-08-08T16:02:45;98778.69;;;28.52;47.13
39051;BME280;24805;55.852;37.644;2023-08-08T16:07:48;98793.38;;;28.20;47.76
39051;BME280;24805;55.852;37.644;2023-08-08T16:12:50;98797.34;;;27.91;48.71
39051;BME280;24805;55.852;37.644;2023-08-08T16:17:53;98805.38;;;27.60;48.98
39051;BME280;24805;55.852;37.644;2023-08-08T16:22:55;98812.97;;;27.36;49.27
39051;BME280;24805;55.852;37.644;2023-08-08T16:27:57;98821.56;;;27.16;49.22
39051;BME280;24805;55.852;37.644;2023-08-08T16:33:01;98830.22;;;27.04;49.72
39051;BME280;24805;55.852;37.644;2023-08-08T16:38:03;98828.69;;;26.98;49.23
39051;BME280;24805;55.852;37.644;2023-08-08T16:43:06;98843.59;;;26.87;49.20
39051;BME280;24805;55.852;37.644;2023-08-08T16:48:09;98846.69;;;26.80;49.42
39051;BME280;24805;55.852;37.644;2023-08-08T16:53:12;98843.56;;;26.73;49.32
39051;BME280;24805;55.852;37.644;2023-08-08T16:58:14;98827.72;;;26.61;49.59
39051;BME280;24805;55.852;37.644;2023-08-08T17:03:17;98834.66;;;26.54;49.05
39051;BME280;24805;55.852;37.644;2023-08-08T17:08:19;98849.19;;;26.30;48.69
39051;BME280;24805;55.852;37.644;2023-08-08T17:13:22;98876.59;;;26.15;48.30
39051;BME280;24805;55.852;37.644;2023-08-08T17:18:24;98887.09;;;26.03;48.09
39051;BME280;24805;55.852;37.644;2023-08-08T17:23:26;98883.94;;;25.96;48.17
39051;BME280;24805;55.852;37.644;2023-08-08T17:28:29;98894.88;;;25.91;48.29
39051;BME280;24805;55.852;37.644;2023-08-08T17:33:31;98892.81;;;25.83;48.15
39051;BME280;24805;55.852;37.644;2023-08-08T17:38:34;98898.91;;;25.74;48.33
39051;BME280;24805;55.852;37.644;2023-08-08T17:43:36;98903.88;;;25.67;47.94
39051;BME280;24805;55.852;37.644;2023-08-08T17:48:38;98896.66;;;25.58;47.63
39051;BME280;24805;55.852;37.644;2023-08-08T17:53:41;98899.88;;;25.36;48.02
39051;BME280;24805;55.852;37.644;2023-08-08T17:58:43;98908.47;;;25.19;48.26
39051;BME280;24805;55.852;37.644;2023-08-08T18:03:46;98911.88;;;25.06;48.25
39051;BME280;24805;55.852;37.644;2023-08-08T18:08:48;98916.09;;;24.88;48.58
39051;BME280;24805;55.852;37.644;2023-08-08T18:13:51;98931.25;;;24.89;49.16
39051;BME280;24805;55.852;37.644;2023-08-08T18:18:53;98942.38;;;24.93;49.31
39051;BME280;24805;55.852;37.644;2023-08-08T18:23:56;98938.84;;;24.97;49.46
39051;BME280;24805;55.852;37.644;2023-08-08T18:28:58;98930.38;;;24.99;49.11
39051;BME280;24805;55.852;37.644;2023-08-08T18:34:01;98915.56;;;24.86;49.10
39051;BME280;24805;55.852;37.644;2023-08-08T18:39:04;98929.97;;;24.82;49.43
39051;BME280;24805;55.852;37.644;2023-08-08T18:44:08;98926.31;;;24.67;49.44
39051;BME280;24805;55.852;37.644;2023-08-08T18:49:15;98948.09;;;24.86;49.60
39051;BME280;24805;55.852;37.644;2023-08-08T18:54:18;98938.72;;;24.73;49.76
39051;BME280;24805;55.852;37.644;2023-08-08T18:59:22;98934.38;;;24.78;49.39
39051;BME280;24805;55.852;37.644;2023-08-08T19:04:25;98917.09;;;24.63;48.90
39051;BME280;24805;55.852;37.644;2023-08-08T19:09:27;98927.91;;;24.68;49.02
39051;BME280;24805;55.852;37.644;2023-08-08T19:14:30;98942.59;;;24.62;48.92
39051;BME280;24805;55.852;37.644;2023-08-08T19:19:32;98934.22;;;24.59;48.80
39051;BME280;24805;55.852;37.644;2023-08-08T19:24:34;98934.06;;;24.45;48.54
39051;BME280;24805;55.852;37.644;2023-08-08T19:29:37;98940.31;;;24.41;48.79
39051;BME280;24805;55.852;37.644;2023-08-08T19:34:39;98950.41;;;24.35;48.56
39051;BME280;24805;55.852;37.644;2023-08-08T19:39:42;98942.31;;;24.25;48.53
39051;BME280;24805;55.852;37.644;2023-08-08T19:44:44;98940.94;;;24.22;48.90
39051;BME280;24805;55.852;37.644;2023-08-08T19:49:46;98942.09;;;24.16;49.04
39051;BME280;24805;55.852;37.644;2023-08-08T19:54:49;98942.13;;;24.11;48.95
39051;BME280;24805;55.852;37.644;2023-08-08T19:59:51;98941.84;;;24.13;49.17
39051;BME280;24805;55.852;37.644;2023-08-08T20:04:55;98948.31;;;24.17;49.38
39051;BME280;24805;55.852;37.644;2023-08-08T20:09:58;98940.47;;;24.15;49.13
39051;BME280;24805;55.852;37.644;2023-08-08T20:15:00;98952.94;;;24.16;48.97
39051;BME280;24805;55.852;37.644;2023-08-08T20:20:03;98951.25;;;24.20;48.64
39051;BME280;24805;55.852;37.644;2023-08-08T20:25:06;98939.59;;;24.20;48.64
39051;BME280;24805;55.852;37.644;2023-08-08T20:30:09;98936.69;;;24.11;49.00
39051;BME280;24805;55.852;37.644;2023-08-08T20:35:13;98936.19;;;24.04;49.34
39051;BME280;24805;55.852;37.644;2023-08-08T20:40:15;98910.81;;;23.90;49.26
39051;BME280;24805;55.852;37.644;2023-08-08T20:45:18;98935.38;;;24.03;49.46
39051;BME280;24805;55.852;37.644;2023-08-08T20:50:20;98928.59;;;24.01;49.14
39051;BME280;24805;55.852;37.644;2023-08-08T20:55:23;98919.38;;;24.07;49.26
39051;BME280;24805;55.852;37.644;2023-08-08T21:00:25;98914.31;;;23.95;49.49
39051;BME280;24805;55.852;37.644;2023-08-08T21:10:30;98926.34;;;23.69;50.23
39051;BME280;24805;55.852;37.644;2023-08-08T21:15:33;98929.34;;;23.62;50.58
39051;BME280;24805;55.852;37.644;2023-08-08T21:20:35;98914.75;;;23.53;50.54
39051;BME280;24805;55.852;37.644;2023-08-08T21:25:37;98917.44;;;23.48;51.18
39051;BME280;24805;55.852;37.644;2023-08-08T21:30:39;98927.50;;;23.38;51.74
39051;BME280;24805;55.852;37.644;2023-08-08T21:35:42;98928.34;;;23.28;51.83
39051;BME280;24805;55.852;37.644;2023-08-08T21:40:44;98935.38;;;23.24;51.86
39051;BME280;24805;55.852;37.644;2023-08-08T21:45:55;98936.44;;;23.33;51.88
39051;BME280;24805;55.852;37.644;2023-08-08T21:50:57;98928.31;;;23.38;51.77
39051;BME280;24805;55.852;37.644;2023-08-08T21:56:00;98936.41;;;23.48;51.58
39051;BME280;24805;55.852;37.644;2023-08-08T22:01:06;98917.19;;;23.45;51.35
39051;BME280;24805;55.852;37.644;2023-08-08T22:06:09;98934.53;;;23.54;51.53
39051;BME280;24805;55.852;37.644;2023-08-08T22:11:11;98925.03;;;23.46;51.45
39051;BME280;24805;55.852;37.644;2023-08-08T22:16:14;98926.41;;;23.38;51.65
39051;BME280;24805;55.852;37.644;2023-08-08T22:21:16;98940.78;;;23.34;51.72
39051;BME280;24805;55.852;37.644;2023-08-08T22:26:18;98934.03;;;23.26;51.79
39051;BME280;24805;55.852;37.644;2023-08-08T22:31:20;98936.47;;;23.23;51.92
39051;BME280;24805;55.852;37.644;2023-08-08T22:36:23;98937.03;;;23.15;52.00
39051;BME280;24805;55.852;37.644;2023-08-08T22:41:25;98936.75;;;23.01;52.39
39051;BME280;24805;55.852;37.644;2023-08-08T22:46:27;98941.38;;;22.90;52.58
39051;BME280;24805;55.852;37.644;2023-08-08T22:51:29;98934.06;;;22.76;53.00
39051;BME280;24805;55.852;37.644;2023-08-08T22:56:31;98935.94;;;22.65;53.16
39051;BME280;24805;55.852;37.644;2023-08-08T23:01:34;98925.69;;;22.57;53.13
39051;BME280;24805;55.852;37.644;2023-08-08T23:06:36;98911.06;;;22.48;53.07
39051;BME280;24805;55.852;37.644;2023-08-08T23:11:38;98929.72;;;22.39;53.61
39051;BME280;24805;55.852;37.644;2023-08-08T23:16:40;98915.13;;;22.30;54.12
39051;BME280;24805;55.852;37.644;2023-08-08T23:21:43;98925.09;;;22.24;53.96
39051;BME280;24805;55.852;37.644;2023-08-08T23:26:45;98918.63;;;22.15;54.17
39051;BME280;24805;55.852;37.644;2023-08-08T23:31:48;98924.00;;;22.10;54.47
39051;BME280;24805;55.852;37.644;2023-08-08T23:36:50;98917.50;;;22.06;54.45
39051;BME280;24805;55.852;37.644;2023-08-08T23:41:53;98918.84;;;22.04;54.72
39051;BME280;24805;55.852;37.644;2023-08-08T23:46:55;98913.69;;;21.97;54.84
39051;BME280;24805;55.852;37.644;2023-08-08T23:51:57;98916.91;;;21.94;54.83
39051;BME280;24805;55.852;37.644;2023-08-08T23:57:00;98914.75;;;21.96;55.07
